createdAt,value
2019-01-28T00:00:33.063Z,1.80
2019-01-28T00:01:41.119Z,1.79
2019-01-28T00:02:49.181Z,1.80
2019-01-28T00:03:57.245Z,1.76
2019-01-28T00:05:05.310Z,1.77
2019-01-28T00:06:13.471Z,1.79
2019-01-28T00:07:21.432Z,1.80
2019-01-28T00:08:29.445Z,1.80
2019-01-28T00:09:37.508Z,1.73
2019-01-28T00:10:45.605Z,1.80
2019-01-28T00:11:53.640Z,1.70
2019-01-28T00:13:01.686Z,1.65
2019-01-28T00:14:09.723Z,1.72
2019-01-28T00:15:17.825Z,1.76
2019-01-28T00:16:25.868Z,1.69
2019-01-28T00:17:33.911Z,1.70
2019-01-28T00:18:41.974Z,1.80
2019-01-28T00:19:50.066Z,1.66
2019-01-28T00:20:58.077Z,1.69
2019-01-28T00:22:06.128Z,1.72
2019-01-28T00:23:14.201Z,1.76
2019-01-28T00:24:22.219Z,1.83
2019-01-28T00:25:30.312Z,1.60
2019-01-28T00:26:38.368Z,1.70
2019-01-28T00:27:46.431Z,1.68
2019-01-28T00:28:54.447Z,1.69
2019-01-28T00:30:02.542Z,1.60
2019-01-28T00:31:10.586Z,1.63
2019-01-28T00:32:18.641Z,1.65
2019-01-28T00:33:26.691Z,1.69
2019-01-28T00:34:34.784Z,1.66
2019-01-28T00:35:42.791Z,1.69
2019-01-28T00:36:50.870Z,1.69
2019-01-28T00:37:58.928Z,1.76
2019-01-28T00:39:06.989Z,1.72
2019-01-28T00:40:15.034Z,1.77
2019-01-28T00:41:23.090Z,1.69
2019-01-28T00:42:31.162Z,1.69
2019-01-28T00:43:39.233Z,1.69
2019-01-28T00:44:47.271Z,1.68
2019-01-28T00:45:56.089Z,1.69
2019-01-28T00:47:03.389Z,1.72
2019-01-28T00:48:11.428Z,1.68
2019-01-28T00:49:19.503Z,1.77
2019-01-28T00:50:27.532Z,1.69
2019-01-28T00:51:35.608Z,1.76
2019-01-28T00:52:43.666Z,1.62
2019-01-28T00:53:51.716Z,1.65
2019-01-28T00:54:59.777Z,1.63
2019-01-28T00:56:07.827Z,1.66
2019-01-28T00:57:15.900Z,1.62
2019-01-28T00:58:23.943Z,1.63
2019-01-28T00:59:32.009Z,1.66
2019-01-28T01:00:40.044Z,1.68
2019-01-28T01:01:48.126Z,1.69
2019-01-28T01:02:56.162Z,1.59
2019-01-28T01:04:04.224Z,1.66
2019-01-28T01:05:12.277Z,1.65
2019-01-28T01:06:20.324Z,1.66
2019-01-28T01:07:28.430Z,1.60
2019-01-28T01:08:36.455Z,1.69
2019-01-28T01:09:44.522Z,1.63
2019-01-28T01:10:52.542Z,1.62
2019-01-28T01:12:00.623Z,1.62
2019-01-28T01:13:08.665Z,1.62
2019-01-28T01:14:16.733Z,1.54
2019-01-28T01:15:24.816Z,1.55
2019-01-28T01:16:32.872Z,1.58
2019-01-28T01:17:40.914Z,1.50
2019-01-28T01:18:48.999Z,1.51
2019-01-28T01:19:57.010Z,1.58
2019-01-28T01:21:05.077Z,1.50
2019-01-28T01:22:13.139Z,1.54
2019-01-28T01:23:21.182Z,1.54
2019-01-28T01:24:29.224Z,1.55
2019-01-28T01:25:37.299Z,1.58
2019-01-28T01:26:45.341Z,1.48
2019-01-28T01:27:53.415Z,1.58
2019-01-28T01:29:01.470Z,1.48
2019-01-28T01:30:09.531Z,1.51
2019-01-28T01:31:17.601Z,1.55
2019-01-28T01:32:25.637Z,1.44
2019-01-28T01:33:33.691Z,1.41
2019-01-28T01:34:41.754Z,1.47
2019-01-28T01:35:49.788Z,1.48
2019-01-28T01:36:57.890Z,1.52
2019-01-28T01:38:05.957Z,1.44
2019-01-28T01:39:14.021Z,1.41
2019-01-28T01:40:22.016Z,1.40
2019-01-28T01:41:30.093Z,1.42
2019-01-28T01:42:38.131Z,1.47
2019-01-28T01:43:46.201Z,1.36
2019-01-28T01:44:54.240Z,1.37
2019-01-28T01:46:02.311Z,1.51
2019-01-28T01:47:10.399Z,1.41
2019-01-28T01:48:18.416Z,1.37
2019-01-28T01:49:26.498Z,1.34
2019-01-28T01:50:34.542Z,1.34
2019-01-28T01:51:42.583Z,1.36
2019-01-28T01:52:50.657Z,1.26
2019-01-28T01:53:58.719Z,1.26
2019-01-28T01:55:06.759Z,1.27
2019-01-28T01:56:14.800Z,1.34
2019-01-28T01:57:22.878Z,1.37
2019-01-28T01:58:30.946Z,1.22
2019-01-28T01:59:38.979Z,1.30
2019-01-28T02:00:47.026Z,1.33
2019-01-28T02:01:55.093Z,1.26
2019-01-28T02:03:03.216Z,1.22
2019-01-28T02:04:11.205Z,1.12
2019-01-28T02:05:19.255Z,1.14
2019-01-28T02:06:27.309Z,1.18
2019-01-28T02:07:35.369Z,1.22
2019-01-28T02:08:43.430Z,1.24
2019-01-28T02:09:51.504Z,1.15
2019-01-28T02:10:59.557Z,1.14
2019-01-28T02:12:07.607Z,1.23
2019-01-28T02:13:15.633Z,1.30
2019-01-28T02:14:23.707Z,1.22
2019-01-28T02:15:31.747Z,1.33
2019-01-28T02:16:39.834Z,1.33
2019-01-28T02:17:47.901Z,1.26
2019-01-28T02:18:55.923Z,1.40
2019-01-28T02:20:03.972Z,1.29
2019-01-28T02:21:12.042Z,1.37
2019-01-28T02:22:20.102Z,1.41
2019-01-28T02:23:28.145Z,1.45
2019-01-28T02:24:36.205Z,1.33
2019-01-28T02:25:44.271Z,1.40
2019-01-28T02:26:52.323Z,1.34
2019-01-28T02:28:00.412Z,1.37
2019-01-28T02:29:08.431Z,1.37
2019-01-28T02:30:16.617Z,1.40
2019-01-28T02:31:24.520Z,1.37
2019-01-28T02:32:32.593Z,1.37
2019-01-28T02:33:40.674Z,1.36
2019-01-28T02:34:48.729Z,1.41
2019-01-28T02:35:56.777Z,1.36
2019-01-28T02:37:04.812Z,1.44
2019-01-28T02:38:12.883Z,1.41
2019-01-28T02:39:20.936Z,1.40
2019-01-28T02:40:28.993Z,1.41
2019-01-28T02:41:37.054Z,1.34
2019-01-28T02:42:45.107Z,1.40
2019-01-28T02:43:53.154Z,1.40
2019-01-28T02:45:01.231Z,1.37
2019-01-28T02:46:09.273Z,1.40
2019-01-28T02:47:17.314Z,1.42
2019-01-28T02:48:25.399Z,1.48
2019-01-28T02:49:33.465Z,1.47
2019-01-28T02:50:41.515Z,1.50
2019-01-28T02:51:49.570Z,1.45
2019-01-28T02:52:57.615Z,1.45
2019-01-28T02:54:05.655Z,1.51
2019-01-28T02:55:13.743Z,1.44
2019-01-28T02:56:21.813Z,1.45
2019-01-28T02:57:29.895Z,1.36
2019-01-28T02:58:37.902Z,1.42
2019-01-28T02:59:45.947Z,1.40
2019-01-28T03:00:54.003Z,1.41
2019-01-28T03:02:02.068Z,1.32
2019-01-28T03:03:10.122Z,1.23
2019-01-28T03:04:18.158Z,1.26
2019-01-28T03:05:26.244Z,1.23
2019-01-28T03:06:34.253Z,1.24
2019-01-28T03:07:42.342Z,1.22
2019-01-28T03:08:50.393Z,1.14
2019-01-28T03:09:58.444Z,1.22
2019-01-28T03:11:06.505Z,1.24
2019-01-28T03:12:14.550Z,1.22
2019-01-28T03:13:22.635Z,1.20
2019-01-28T03:14:30.695Z,1.29
2019-01-28T03:15:38.728Z,1.23
2019-01-28T03:16:46.771Z,1.36
2019-01-28T03:17:54.853Z,1.33
2019-01-28T03:19:02.910Z,1.41
2019-01-28T03:20:10.972Z,1.40
2019-01-28T03:21:19.024Z,1.33
2019-01-28T03:22:27.059Z,1.36
2019-01-28T03:23:35.127Z,1.30
2019-01-28T03:24:43.193Z,1.34
2019-01-28T03:25:51.230Z,1.30
2019-01-28T03:26:59.292Z,1.30
2019-01-28T03:28:07.422Z,1.26
2019-01-28T03:29:15.424Z,1.40
2019-01-28T03:30:23.460Z,1.36
2019-01-28T03:31:31.522Z,1.30
2019-01-28T03:32:39.606Z,1.41
2019-01-28T03:33:47.615Z,1.22
2019-01-28T03:34:55.703Z,1.23
2019-01-28T03:36:03.737Z,1.23
2019-01-28T03:37:11.795Z,1.30
2019-01-28T03:38:19.844Z,1.34
2019-01-28T03:39:27.918Z,1.18
2019-01-28T03:40:35.964Z,1.18
2019-01-28T03:41:44.021Z,1.30
2019-01-28T03:42:52.072Z,1.22
2019-01-28T03:44:00.142Z,1.22
2019-01-28T03:45:08.180Z,1.22
2019-01-28T03:46:16.247Z,1.24
2019-01-28T03:47:24.282Z,1.24
2019-01-28T03:48:32.392Z,1.15
2019-01-28T03:49:40.413Z,1.20
2019-01-28T03:50:48.472Z,1.22
2019-01-28T03:51:56.544Z,1.15
2019-01-28T03:53:04.571Z,1.14
2019-01-28T03:54:12.635Z,1.11
2019-01-28T03:55:20.693Z,1.14
2019-01-28T03:56:28.753Z,1.14
2019-01-28T03:57:36.791Z,1.14
2019-01-28T03:58:44.896Z,1.11
2019-01-28T03:59:53.001Z,1.14
2019-01-28T04:01:00.967Z,1.06
2019-01-28T04:02:09.019Z,1.09
2019-01-28T04:03:17.112Z,1.14
2019-01-28T04:04:25.130Z,1.09
2019-01-28T04:05:33.200Z,1.15
2019-01-28T04:06:41.253Z,1.06
2019-01-28T04:07:49.351Z,1.05
2019-01-28T04:08:57.362Z,1.04
2019-01-28T04:10:05.422Z,1.05
2019-01-28T04:11:13.488Z,1.12
2019-01-28T04:12:21.543Z,1.05
2019-01-28T04:13:29.598Z,1.09
2019-01-28T04:14:37.661Z,1.02
2019-01-28T04:15:45.700Z,1.11
2019-01-28T04:16:53.767Z,1.09
2019-01-28T04:18:01.813Z,1.09
2019-01-28T04:19:09.862Z,1.08
2019-01-28T04:20:17.915Z,1.02
2019-01-28T04:21:25.985Z,0.98
2019-01-28T04:22:34.015Z,0.94
2019-01-28T04:23:42.088Z,0.93
2019-01-28T04:24:50.141Z,0.93
2019-01-28T04:25:58.198Z,0.86
2019-01-28T04:27:06.257Z,0.87
2019-01-28T04:28:14.316Z,0.90
2019-01-28T04:29:22.389Z,0.88
2019-01-28T04:30:30.416Z,0.87
2019-01-28T04:31:38.478Z,0.78
2019-01-28T04:32:46.538Z,0.90
2019-01-28T04:33:54.576Z,0.94
2019-01-28T04:35:02.635Z,0.84
2019-01-28T04:36:10.703Z,0.90
2019-01-28T04:37:18.754Z,0.83
2019-01-28T04:38:26.819Z,0.80
2019-01-28T04:39:34.858Z,0.83
2019-01-28T04:40:42.931Z,0.80
2019-01-28T04:41:50.976Z,0.75
2019-01-28T04:42:59.035Z,0.72
2019-01-28T04:44:07.089Z,0.75
2019-01-28T04:45:15.157Z,0.70
2019-01-28T04:46:23.190Z,0.78
2019-01-28T04:47:31.289Z,0.62
2019-01-28T04:48:39.321Z,0.62
2019-01-28T04:49:47.407Z,0.65
2019-01-28T04:50:55.437Z,0.60
2019-01-28T04:52:03.490Z,0.58
2019-01-28T04:53:11.539Z,0.55
2019-01-28T04:54:19.613Z,0.49
2019-01-28T04:55:27.655Z,0.58
2019-01-28T04:56:35.707Z,0.57
2019-01-28T04:57:43.741Z,0.57
2019-01-28T04:58:51.824Z,0.61
2019-01-28T04:59:59.888Z,0.68
2019-01-28T05:01:07.931Z,0.66
2019-01-28T05:02:15.986Z,0.72
2019-01-28T05:03:24.017Z,0.75
2019-01-28T05:04:32.741Z,0.86
2019-01-28T05:05:40.143Z,0.79
2019-01-28T05:06:48.205Z,0.76
2019-01-28T05:07:56.246Z,0.91
2019-01-28T05:09:04.283Z,0.80
2019-01-28T05:10:12.401Z,0.83
2019-01-28T05:11:20.480Z,0.90
2019-01-28T05:12:28.477Z,0.91
2019-01-28T05:13:36.538Z,0.90
2019-01-28T05:14:44.567Z,0.86
2019-01-28T05:15:52.624Z,0.93
2019-01-28T05:17:00.714Z,0.94
2019-01-28T05:18:08.749Z,0.90
2019-01-28T05:19:16.828Z,1.02
2019-01-28T05:20:24.860Z,0.97
2019-01-28T05:21:32.918Z,1.04
2019-01-28T05:22:41.177Z,1.02
2019-01-28T05:23:49.048Z,0.97
2019-01-28T05:24:57.094Z,1.15
2019-01-28T05:26:05.160Z,1.05
2019-01-28T05:27:13.213Z,1.08
2019-01-28T05:28:21.330Z,1.04
2019-01-28T05:29:29.341Z,0.98
2019-01-28T05:30:37.375Z,1.09
2019-01-28T05:31:45.441Z,1.04
2019-01-28T05:32:53.461Z,1.06
2019-01-28T05:34:01.582Z,1.12
2019-01-28T05:35:10.107Z,1.09
2019-01-28T05:36:17.659Z,1.04
2019-01-28T05:37:25.695Z,1.04
2019-01-28T05:38:33.777Z,1.06
2019-01-28T05:39:41.816Z,1.05
2019-01-28T05:40:49.854Z,1.06
2019-01-28T05:41:57.927Z,1.14
2019-01-28T05:43:05.997Z,1.11
2019-01-28T05:44:14.022Z,1.06
2019-01-28T05:45:22.117Z,1.12
2019-01-28T05:46:30.137Z,1.08
2019-01-28T05:47:38.226Z,1.09
2019-01-28T05:48:46.296Z,1.08
2019-01-28T05:49:54.305Z,1.06
2019-01-28T05:51:02.371Z,1.12
2019-01-28T05:52:10.447Z,1.06
2019-01-28T05:53:18.513Z,1.08
2019-01-28T05:54:27.266Z,1.08
2019-01-28T05:55:34.610Z,1.11
2019-01-28T05:56:42.658Z,1.09
2019-01-28T05:57:50.834Z,1.11
2019-01-28T05:58:59.033Z,1.00
2019-01-28T06:00:06.815Z,1.05
2019-01-28T06:01:14.851Z,1.06
2019-01-28T06:02:22.919Z,1.16
2019-01-28T06:03:31.334Z,1.08
2019-01-28T06:04:39.038Z,1.00
2019-01-28T06:05:47.088Z,0.94
2019-01-28T06:06:55.483Z,1.00
2019-01-28T06:08:03.187Z,1.04
2019-01-28T06:09:11.304Z,1.05
2019-01-28T06:10:19.309Z,1.15
2019-01-28T06:11:27.392Z,1.09
2019-01-28T06:12:35.423Z,0.97
2019-01-28T06:13:43.497Z,0.98
2019-01-28T06:14:51.528Z,1.06
2019-01-28T06:15:59.631Z,1.06
2019-01-28T06:17:07.655Z,1.02
2019-01-28T06:18:15.699Z,1.08
2019-01-28T06:19:23.772Z,1.11
2019-01-28T06:20:31.827Z,1.04
2019-01-28T06:21:39.879Z,0.96
2019-01-28T06:22:47.953Z,1.09
2019-01-28T06:23:56.004Z,1.12
2019-01-28T06:25:04.041Z,1.02
2019-01-28T06:26:12.117Z,1.11
2019-01-28T06:27:20.157Z,1.05
2019-01-28T06:28:28.222Z,0.98
2019-01-28T06:29:36.274Z,1.04
2019-01-28T06:30:44.292Z,0.94
2019-01-28T06:31:52.393Z,1.04
2019-01-28T06:33:00.455Z,1.02
2019-01-28T06:34:08.498Z,1.04
2019-01-28T06:35:16.685Z,1.02
2019-01-28T06:36:24.577Z,0.98
2019-01-28T06:37:32.656Z,1.05
2019-01-28T06:38:40.737Z,1.00
2019-01-28T06:39:48.774Z,0.91
2019-01-28T06:40:56.825Z,0.91
2019-01-28T06:42:04.867Z,0.91
2019-01-28T06:43:12.949Z,0.91
2019-01-28T06:44:21.005Z,0.90
2019-01-28T06:45:29.047Z,0.88
2019-01-28T06:46:37.111Z,0.88
2019-01-28T06:47:46.766Z,0.91
2019-01-28T06:48:53.249Z,0.90
2019-01-28T06:50:01.260Z,0.87
2019-01-28T06:51:10.379Z,0.93
2019-01-28T06:52:17.396Z,0.90
2019-01-28T06:53:25.458Z,0.87
2019-01-28T06:54:33.565Z,0.88
2019-01-28T06:55:41.570Z,0.96
2019-01-28T06:56:49.623Z,0.93
2019-01-28T06:57:57.686Z,0.96
2019-01-28T06:59:05.738Z,0.90
2019-01-28T07:00:13.782Z,0.96
2019-01-28T07:01:21.842Z,1.02
2019-01-28T07:02:29.888Z,1.00
2019-01-28T07:03:37.964Z,0.97
2019-01-28T07:04:46.017Z,1.05
2019-01-28T07:05:54.035Z,1.06
2019-01-28T07:07:02.116Z,1.02
2019-01-28T07:08:10.172Z,1.05
2019-01-28T07:09:18.233Z,1.04
2019-01-28T07:10:26.277Z,0.98
2019-01-28T07:11:34.344Z,1.06
2019-01-28T07:12:42.393Z,1.06
2019-01-28T07:13:50.458Z,1.06
2019-01-28T07:14:58.512Z,0.98
2019-01-28T07:16:06.566Z,1.08
2019-01-28T07:17:14.639Z,0.97
2019-01-28T07:18:22.685Z,0.98
2019-01-28T07:19:31.322Z,1.04
2019-01-28T07:20:38.802Z,1.05
2019-01-28T07:21:46.846Z,1.04
2019-01-28T07:22:54.880Z,1.04
2019-01-28T07:24:02.976Z,1.08
2019-01-28T07:25:11.025Z,1.08
2019-01-28T07:26:19.072Z,1.09
2019-01-28T07:27:27.136Z,1.14
2019-01-28T07:28:35.196Z,1.12
2019-01-28T07:29:43.216Z,1.15
2019-01-28T07:30:51.328Z,1.15
2019-01-28T07:32:00.137Z,1.20
2019-01-28T07:33:07.437Z,1.24
2019-01-28T07:34:15.464Z,1.24
2019-01-28T07:35:23.500Z,1.24
2019-01-28T07:36:31.569Z,1.29
2019-01-28T07:37:39.625Z,1.29
2019-01-28T07:38:47.694Z,1.23
2019-01-28T07:39:55.738Z,1.23
2019-01-28T07:41:03.795Z,1.32
2019-01-28T07:42:11.834Z,1.33
2019-01-28T07:43:19.907Z,1.20
2019-01-28T07:44:27.949Z,1.42
2019-01-28T07:45:36.027Z,1.32
2019-01-28T07:46:44.093Z,1.36
2019-01-28T07:47:52.144Z,1.41
2019-01-28T07:49:00.182Z,1.41
2019-01-28T07:50:09.356Z,1.40
2019-01-28T07:51:16.313Z,1.50
2019-01-28T07:52:24.348Z,1.51
2019-01-28T07:53:32.417Z,1.50
2019-01-28T07:54:40.484Z,1.55
2019-01-28T07:55:48.519Z,1.50
2019-01-28T07:56:56.593Z,1.47
2019-01-28T07:58:04.641Z,1.54
2019-01-28T07:59:12.696Z,1.55
2019-01-28T08:00:20.756Z,1.51
2019-01-28T08:01:28.804Z,1.51
2019-01-28T08:02:36.927Z,1.55
2019-01-28T08:03:44.940Z,1.59
2019-01-28T08:04:52.982Z,1.55
2019-01-28T08:06:01.040Z,1.48
2019-01-28T08:07:09.100Z,1.63
2019-01-28T08:08:17.158Z,1.62
2019-01-28T08:09:25.236Z,1.69
2019-01-28T08:10:33.264Z,1.65
2019-01-28T08:11:41.369Z,1.79
2019-01-28T08:12:49.407Z,1.79
2019-01-28T08:13:57.533Z,1.84
2019-01-28T08:15:05.498Z,1.84
2019-01-28T08:16:13.560Z,1.90
2019-01-28T08:17:21.594Z,1.98
2019-01-28T08:18:29.661Z,1.83
2019-01-28T08:19:37.712Z,1.91
2019-01-28T08:20:45.796Z,1.90
2019-01-28T08:21:53.828Z,1.80
2019-01-28T08:23:01.913Z,1.86
2019-01-28T08:24:09.940Z,1.79
2019-01-28T08:25:18.009Z,1.87
2019-01-28T08:26:26.057Z,1.68
2019-01-28T08:27:35.138Z,1.80
2019-01-28T08:28:42.182Z,1.80
2019-01-28T08:29:50.237Z,1.76
2019-01-28T08:30:58.315Z,1.86
2019-01-28T08:32:06.385Z,1.83
2019-01-28T08:33:14.402Z,1.77
2019-01-28T08:34:22.451Z,1.77
2019-01-28T08:35:30.493Z,1.83
2019-01-28T08:36:38.592Z,1.80
2019-01-28T08:37:46.638Z,1.83
2019-01-28T08:38:54.653Z,1.79
2019-01-28T08:40:02.737Z,1.69
2019-01-28T08:41:10.806Z,1.73
2019-01-28T08:42:18.867Z,1.65
2019-01-28T08:43:26.942Z,1.69
2019-01-28T08:44:34.969Z,1.69
2019-01-28T08:45:43.023Z,1.69
2019-01-28T08:46:51.088Z,1.72
2019-01-28T08:47:59.157Z,1.72
2019-01-28T08:49:07.202Z,1.80
2019-01-28T08:50:15.313Z,1.77
2019-01-28T08:51:23.314Z,1.77
2019-01-28T08:52:31.376Z,1.84
2019-01-28T08:53:39.421Z,1.86
2019-01-28T08:54:47.502Z,1.87
2019-01-28T08:55:55.541Z,1.88
2019-01-28T08:57:03.602Z,2.00
2019-01-28T08:58:11.649Z,2.05
2019-01-28T08:59:19.729Z,2.21
2019-01-28T09:00:27.809Z,2.25
2019-01-28T09:01:35.836Z,2.30
2019-01-28T09:02:43.903Z,2.36
2019-01-28T09:03:51.944Z,2.48
2019-01-28T09:05:00.000Z,2.48
2019-01-28T09:06:08.071Z,2.46
2019-01-28T09:07:16.112Z,2.53
2019-01-28T09:08:24.178Z,2.49
2019-01-28T09:09:32.227Z,2.53
2019-01-28T09:10:40.296Z,2.60
2019-01-28T09:11:48.338Z,2.57
2019-01-28T09:12:56.428Z,2.59
2019-01-28T09:14:04.465Z,2.43
2019-01-28T09:15:12.514Z,2.52
2019-01-28T09:16:20.585Z,2.56
2019-01-28T09:17:28.631Z,2.53
2019-01-28T09:18:36.692Z,2.53
2019-01-28T09:19:44.780Z,2.46
2019-01-28T09:20:52.831Z,2.46
2019-01-28T09:22:00.889Z,2.41
2019-01-28T09:23:08.924Z,2.43
2019-01-28T09:24:17.007Z,2.53
2019-01-28T09:25:25.028Z,2.48
2019-01-28T09:26:33.128Z,2.59
2019-01-28T09:27:41.145Z,2.56
2019-01-28T09:28:49.217Z,2.64
2019-01-28T09:29:57.272Z,2.69
2019-01-28T09:31:05.332Z,2.77
2019-01-28T09:32:13.395Z,2.69
2019-01-28T09:33:21.446Z,2.77
2019-01-28T09:34:29.505Z,2.69
2019-01-28T09:35:37.556Z,2.71
2019-01-28T09:36:45.639Z,2.74
2019-01-28T09:37:53.687Z,2.71
2019-01-28T09:39:01.740Z,2.85
2019-01-28T09:40:09.812Z,2.78
2019-01-28T09:41:17.843Z,2.82
2019-01-28T09:42:25.891Z,2.75
2019-01-28T09:43:33.975Z,2.77
2019-01-28T09:44:42.028Z,2.77
2019-01-28T09:45:50.118Z,2.79
2019-01-28T09:46:58.175Z,2.89
2019-01-28T09:48:06.207Z,2.84
2019-01-28T09:49:14.236Z,2.87
2019-01-28T09:50:22.325Z,2.90
2019-01-28T09:51:30.393Z,2.87
2019-01-28T09:52:38.445Z,2.85
2019-01-28T09:53:46.505Z,2.93
2019-01-28T09:54:54.537Z,2.89
2019-01-28T09:56:02.599Z,2.92
2019-01-28T09:57:10.710Z,2.89
2019-01-28T09:58:18.731Z,2.90
2019-01-28T09:59:26.792Z,2.99
2019-01-28T10:00:34.841Z,2.96
2019-01-28T10:01:42.924Z,2.92
2019-01-28T10:02:50.955Z,2.93
2019-01-28T10:03:58.997Z,2.99
2019-01-28T10:05:07.094Z,3.02
2019-01-28T10:06:15.105Z,2.96
2019-01-28T10:07:23.213Z,2.93
2019-01-28T10:08:31.241Z,2.99
2019-01-28T10:09:39.292Z,2.97
2019-01-28T10:10:47.377Z,3.06
2019-01-28T10:11:55.443Z,3.08
2019-01-28T10:13:03.519Z,3.10
2019-01-28T10:14:11.543Z,3.15
2019-01-28T10:15:19.622Z,3.23
2019-01-28T10:16:27.672Z,3.20
2019-01-28T10:17:35.733Z,3.28
2019-01-28T10:18:43.786Z,3.42
2019-01-28T10:19:51.831Z,3.57
2019-01-28T10:20:59.886Z,3.80
2019-01-28T10:22:07.950Z,3.87
2019-01-28T10:23:16.019Z,4.06
2019-01-28T10:24:24.072Z,4.15
2019-01-28T10:25:32.127Z,4.20
2019-01-28T10:26:40.225Z,4.24
2019-01-28T10:27:48.271Z,4.26
2019-01-28T10:28:56.320Z,4.44
2019-01-28T10:30:04.380Z,4.51
2019-01-28T10:31:12.526Z,4.45
2019-01-28T10:32:20.490Z,4.40
2019-01-28T10:33:28.556Z,4.37
2019-01-28T10:34:36.601Z,4.42
2019-01-28T10:35:44.654Z,4.50
2019-01-28T10:36:52.735Z,4.47
2019-01-28T10:38:00.785Z,4.45
2019-01-28T10:39:08.842Z,4.50
2019-01-28T10:40:16.965Z,4.29
2019-01-28T10:41:24.983Z,4.20
2019-01-28T10:42:33.019Z,4.04
2019-01-28T10:43:41.108Z,3.93
2019-01-28T10:44:49.143Z,3.62
2019-01-28T10:45:57.203Z,3.50
2019-01-28T10:47:05.257Z,3.35
2019-01-28T10:48:13.317Z,3.32
2019-01-28T10:49:21.422Z,3.36
2019-01-28T10:50:29.456Z,3.35
2019-01-28T10:51:37.558Z,3.36
2019-01-28T10:52:45.632Z,3.35
2019-01-28T10:53:53.661Z,3.24
2019-01-28T10:55:01.723Z,3.23
2019-01-28T10:56:09.749Z,3.10
2019-01-28T10:57:17.809Z,3.10
2019-01-28T10:58:25.897Z,3.13
2019-01-28T10:59:33.940Z,3.05
2019-01-28T11:00:42.007Z,3.11
2019-01-28T11:01:50.067Z,2.95
2019-01-28T11:02:58.104Z,3.02
2019-01-28T11:04:06.178Z,3.03
2019-01-28T11:05:14.195Z,3.00
2019-01-28T11:06:22.292Z,2.92
2019-01-28T11:07:30.360Z,2.93
2019-01-28T11:08:38.409Z,2.95
2019-01-28T11:09:46.528Z,3.13
2019-01-28T11:10:54.527Z,3.05
2019-01-28T11:12:02.665Z,2.95
2019-01-28T11:13:10.740Z,3.03
2019-01-28T11:14:18.786Z,2.97
2019-01-28T11:15:26.760Z,3.08
2019-01-28T11:16:34.807Z,3.08
2019-01-28T11:17:42.990Z,3.24
2019-01-28T11:18:57.513Z,3.18
2019-01-28T11:19:59.059Z,3.23
2019-01-28T11:21:07.063Z,3.17
2019-01-28T11:22:15.204Z,3.23
2019-01-28T11:23:23.234Z,3.29
2019-01-28T11:24:31.235Z,3.35
2019-01-28T11:25:39.318Z,3.48
2019-01-28T11:26:47.368Z,3.39
2019-01-28T11:27:55.441Z,3.69
2019-01-28T11:29:03.634Z,3.62
2019-01-28T11:30:11.631Z,3.78
2019-01-28T11:31:19.607Z,3.76
2019-01-28T11:32:27.723Z,3.80
2019-01-28T11:33:39.394Z,3.88
2019-01-28T11:34:43.862Z,3.91
2019-01-28T11:35:51.930Z,3.94
2019-01-28T11:37:00.032Z,3.83
2019-01-28T11:38:08.016Z,3.78
2019-01-28T11:39:16.019Z,3.62
2019-01-28T11:40:24.032Z,3.62
2019-01-28T11:41:32.219Z,3.69
2019-01-28T11:42:40.309Z,3.61
2019-01-28T11:43:48.324Z,3.55
2019-01-28T11:44:56.469Z,3.61
2019-01-28T11:46:04.470Z,3.61
2019-01-28T11:47:12.539Z,3.57
2019-01-28T11:48:21.290Z,3.55
2019-01-28T11:49:28.685Z,3.60
2019-01-28T11:50:36.626Z,3.50
2019-01-28T11:51:44.677Z,3.51
2019-01-28T11:52:52.717Z,3.48
2019-01-28T11:54:00.791Z,3.58
2019-01-28T11:55:08.842Z,3.52
2019-01-28T11:56:16.898Z,3.55
2019-01-28T11:57:24.952Z,3.51
2019-01-28T11:58:33.019Z,3.50
2019-01-28T11:59:41.069Z,3.58
2019-01-28T12:00:49.128Z,3.54
2019-01-28T12:01:57.187Z,3.29
2019-01-28T12:03:05.239Z,3.28
2019-01-28T12:04:13.293Z,3.28
2019-01-28T12:05:21.377Z,3.33
2019-01-28T12:06:29.435Z,3.39
2019-01-28T12:07:37.477Z,3.36
2019-01-28T12:08:45.542Z,3.35
2019-01-28T12:09:53.603Z,3.48
2019-01-28T12:11:01.664Z,3.52
2019-01-28T12:12:09.755Z,3.45
2019-01-28T12:13:17.812Z,3.54
2019-01-28T12:14:25.848Z,3.52
2019-01-28T12:15:33.880Z,3.55
2019-01-28T12:16:41.959Z,3.70
2019-01-28T12:17:50.004Z,3.73
2019-01-28T12:18:58.077Z,3.75
2019-01-28T12:20:06.142Z,3.70
2019-01-28T12:21:14.177Z,3.69
2019-01-28T12:22:22.241Z,3.65
2019-01-28T12:23:34.443Z,3.76
2019-01-28T12:24:38.380Z,3.75
2019-01-28T12:25:46.428Z,3.76
2019-01-28T12:26:54.478Z,3.76
2019-01-28T12:28:02.642Z,3.70
2019-01-28T12:29:11.692Z,3.79
2019-01-28T12:30:18.655Z,3.66
2019-01-28T12:31:26.717Z,3.55
2019-01-28T12:32:34.758Z,3.48
2019-01-28T12:33:42.856Z,3.43
2019-01-28T12:34:50.891Z,3.20
2019-01-28T12:35:58.969Z,3.26
2019-01-28T12:37:07.026Z,3.14
2019-01-28T12:38:15.086Z,3.18
2019-01-28T12:39:23.120Z,3.13
2019-01-28T12:40:31.203Z,3.11
2019-01-28T12:41:39.235Z,3.03
2019-01-28T12:42:47.304Z,3.05
2019-01-28T12:43:55.348Z,3.00
2019-01-28T12:45:03.444Z,3.03
2019-01-28T12:46:11.519Z,3.13
2019-01-28T12:47:19.537Z,3.18
2019-01-28T12:48:27.631Z,3.21
2019-01-28T12:49:35.673Z,3.26
2019-01-28T12:50:43.717Z,3.17
2019-01-28T12:51:51.805Z,3.21
2019-01-28T12:52:59.843Z,3.26
2019-01-28T12:54:07.872Z,3.28
2019-01-28T12:55:15.980Z,3.20
2019-01-28T12:56:23.996Z,3.10
2019-01-28T12:57:32.083Z,3.20
2019-01-28T12:58:40.139Z,3.06
2019-01-28T12:59:48.186Z,3.05
2019-01-28T13:00:56.241Z,3.02
2019-01-28T13:02:04.323Z,3.05
2019-01-28T13:03:12.380Z,2.99
2019-01-28T13:04:20.424Z,3.06
2019-01-28T13:05:28.504Z,3.03
2019-01-28T13:06:36.529Z,3.00
2019-01-28T13:07:44.596Z,3.02
2019-01-28T13:08:52.658Z,3.05
2019-01-28T13:10:00.693Z,2.99
2019-01-28T13:11:08.780Z,3.02
2019-01-28T13:12:16.830Z,2.93
2019-01-28T13:13:24.982Z,2.92
2019-01-28T13:14:34.177Z,2.90
2019-01-28T13:15:41.006Z,2.92
2019-01-28T13:16:49.098Z,2.99
2019-01-28T13:17:57.136Z,2.93
2019-01-28T13:19:05.192Z,2.96
2019-01-28T13:20:13.244Z,2.97
2019-01-28T13:21:21.291Z,2.95
2019-01-28T13:22:29.345Z,2.90
2019-01-28T13:23:37.421Z,2.93
2019-01-28T13:24:45.471Z,2.89
2019-01-28T13:25:53.511Z,2.87
2019-01-28T13:27:01.593Z,2.93
2019-01-28T13:28:09.651Z,3.06
2019-01-28T13:29:17.694Z,2.89
2019-01-28T13:30:25.766Z,2.93
2019-01-28T13:31:33.817Z,2.95
2019-01-28T13:32:41.899Z,2.84
2019-01-28T13:33:49.922Z,2.90
2019-01-28T13:34:58.008Z,2.95
2019-01-28T13:36:09.288Z,2.92
2019-01-28T13:37:14.087Z,2.95
2019-01-28T13:38:22.169Z,2.95
2019-01-28T13:39:30.230Z,2.96
2019-01-28T13:40:38.314Z,3.00
2019-01-28T13:41:46.327Z,3.00
2019-01-28T13:42:54.382Z,3.03
2019-01-28T13:44:02.457Z,3.05
2019-01-28T13:45:10.539Z,3.00
2019-01-28T13:46:18.575Z,3.02
2019-01-28T13:47:26.639Z,2.95
2019-01-28T13:48:34.671Z,2.92
2019-01-28T13:49:42.798Z,2.89
2019-01-28T13:50:50.796Z,2.97
2019-01-28T13:51:58.857Z,2.93
2019-01-28T13:53:06.898Z,2.93
2019-01-28T13:54:14.989Z,3.02
2019-01-28T13:55:23.037Z,2.96
2019-01-28T13:56:31.115Z,2.96
2019-01-28T13:57:39.167Z,2.89
2019-01-28T13:58:47.224Z,2.85
2019-01-28T13:59:55.277Z,2.77
2019-01-28T14:01:03.332Z,2.89
2019-01-28T14:02:11.416Z,2.84
2019-01-28T14:03:19.461Z,2.89
2019-01-28T14:04:27.524Z,2.78
2019-01-28T14:05:35.546Z,2.85
2019-01-28T14:06:43.631Z,2.84
2019-01-28T14:07:51.712Z,2.92
2019-01-28T14:08:59.739Z,2.89
2019-01-28T14:10:07.790Z,2.95
2019-01-28T14:11:15.846Z,2.95
2019-01-28T14:12:23.931Z,2.97
2019-01-28T14:13:31.991Z,3.10
2019-01-28T14:14:40.024Z,3.10
2019-01-28T14:15:48.100Z,3.06
2019-01-28T14:16:56.153Z,3.13
2019-01-28T14:18:04.190Z,3.17
2019-01-28T14:19:12.262Z,3.08
2019-01-28T14:20:20.319Z,3.02
2019-01-28T14:21:28.413Z,3.06
2019-01-28T14:22:36.437Z,2.96
2019-01-28T14:23:44.483Z,2.95
2019-01-28T14:24:52.592Z,2.92
2019-01-28T14:26:00.620Z,2.85
2019-01-28T14:27:08.693Z,3.00
2019-01-28T14:28:16.760Z,2.90
2019-01-28T14:29:24.800Z,2.89
2019-01-28T14:30:32.912Z,2.82
2019-01-28T14:31:40.910Z,2.89
2019-01-28T14:32:48.971Z,2.89
2019-01-28T14:33:57.020Z,2.85
2019-01-28T14:35:05.070Z,2.79
2019-01-28T14:36:13.145Z,2.81
2019-01-28T14:37:21.210Z,2.79
2019-01-28T14:38:29.941Z,2.78
2019-01-28T14:39:37.328Z,2.79
2019-01-28T14:40:45.986Z,2.75
2019-01-28T14:41:53.436Z,2.67
2019-01-28T14:43:01.522Z,2.79
2019-01-28T14:44:09.604Z,2.82
2019-01-28T14:45:17.603Z,2.75
2019-01-28T14:46:25.677Z,2.74
2019-01-28T14:47:33.739Z,2.74
2019-01-28T14:48:48.969Z,2.77
2019-01-28T14:49:54.282Z,2.67
2019-01-28T14:50:57.911Z,2.74
2019-01-28T14:52:05.964Z,2.72
2019-01-28T14:53:14.018Z,2.74
2019-01-28T14:54:22.114Z,2.60
2019-01-28T14:55:30.134Z,2.56
2019-01-28T14:56:38.191Z,2.52
2019-01-28T14:57:46.274Z,2.49
2019-01-28T14:58:54.317Z,2.46
2019-01-28T15:00:02.403Z,2.52
2019-01-28T15:01:10.440Z,2.36
2019-01-28T15:02:20.161Z,2.24
2019-01-28T15:03:26.542Z,2.25
2019-01-28T15:04:34.631Z,2.21
2019-01-28T15:05:42.702Z,2.25